sensor_id;sensor_type;location;lat;lon;timestamp;pressure;altitude;pressure_sealevel;temperature;humidity
40788;BME280;26497;52.494;7.546;2023-03-23T00:00:08;99635.31;;;14.81;87.31
40788;BME280;26497;52.494;7.546;2023-03-23T00:02:35;99638.47;;;14.92;86.22
40788;BME280;26497;52.494;7.546;2023-03-23T00:05:04;99624.66;;;15.08;85.67
40788;BME280;26497;52.494;7.546;2023-03-23T00:07:34;99631.38;;;15.18;84.80
40788;BME280;26497;52.494;7.546;2023-03-23T00:10:02;99629.06;;;15.32;83.92
40788;BME280;26497;52.494;7.546;2023-03-23T00:12:31;99624.22;;;15.20;83.90
40788;BME280;26497;52.494;7.546;2023-03-23T00:15:00;99617.84;;;15.24;84.06
40788;BME280;26497;52.494;7.546;2023-03-23T00:17:28;99617.31;;;15.14;83.70
40788;BME280;26497;52.494;7.546;2023-03-23T00:19:55;99615.38;;;15.19;83.92
40788;BME280;26497;52.494;7.546;2023-03-23T00:22:22;99610.28;;;15.13;83.27
40788;BME280;26497;52.494;7.546;2023-03-23T00:24:52;99601.00;;;15.00;84.53
40788;BME280;26497;52.494;7.546;2023-03-23T00:27:20;99591.38;;;14.97;84.38
40788;BME280;26497;52.494;7.546;2023-03-23T00:29:48;99602.31;;;14.88;84.56
40788;BME280;26497;52.494;7.546;2023-03-23T00:32:19;99597.91;;;15.12;83.94
40788;BME280;26497;52.494;7.546;2023-03-23T00:34:47;99599.03;;;15.07;83.50
40788;BME280;26497;52.494;7.546;2023-03-23T00:37:15;99597.22;;;15.07;83.50
40788;BME280;26497;52.494;7.546;2023-03-23T00:39:43;99597.06;;;15.12;82.90
40788;BME280;26497;52.494;7.546;2023-03-23T00:42:14;99604.34;;;15.07;83.57
40788;BME280;26497;52.494;7.546;2023-03-23T00:44:42;99600.88;;;15.04;83.04
40788;BME280;26497;52.494;7.546;2023-03-23T00:47:11;99593.81;;;15.03;83.44
40788;BME280;26497;52.494;7.546;2023-03-23T00:49:38;99599.28;;;14.99;83.46
40788;BME280;26497;52.494;7.546;2023-03-23T00:52:07;99595.06;;;14.93;83.72
40788;BME280;26497;52.494;7.546;2023-03-23T00:54:34;99600.53;;;15.14;82.58
40788;BME280;26497;52.494;7.546;2023-03-23T00:57:04;99601.53;;;15.35;81.51
40788;BME280;26497;52.494;7.546;2023-03-23T00:59:32;99596.09;;;15.38;80.83
40788;BME280;26497;52.494;7.546;2023-03-23T01:01:59;99595.97;;;15.41;80.83
40788;BME280;26497;52.494;7.546;2023-03-23T01:04:26;99582.25;;;15.54;79.65
40788;BME280;26497;52.494;7.546;2023-03-23T01:06:57;99578.44;;;15.37;80.06
40788;BME280;26497;52.494;7.546;2023-03-23T01:09:26;99588.91;;;15.16;80.90
40788;BME280;26497;52.494;7.546;2023-03-23T01:11:53;99590.53;;;15.21;81.10
40788;BME280;26497;52.494;7.546;2023-03-23T01:14:22;99596.38;;;15.30;80.73
40788;BME280;26497;52.494;7.546;2023-03-23T01:16:51;99590.34;;;15.25;80.68
40788;BME280;26497;52.494;7.546;2023-03-23T01:19:18;99571.72;;;15.27;80.47
40788;BME280;26497;52.494;7.546;2023-03-23T01:21:45;99582.69;;;15.17;80.11
40788;BME280;26497;52.494;7.546;2023-03-23T01:24:12;99588.41;;;15.30;80.08
40788;BME280;26497;52.494;7.546;2023-03-23T01:26:39;99572.94;;;15.18;79.96
40788;BME280;26497;52.494;7.546;2023-03-23T01:29:06;99574.41;;;15.25;79.70
40788;BME280;26497;52.494;7.546;2023-03-23T01:31:33;99577.38;;;15.41;78.66
40788;BME280;26497;52.494;7.546;2023-03-23T01:34:03;99579.88;;;15.22;79.30
40788;BME280;26497;52.494;7.546;2023-03-23T01:36:31;99571.22;;;15.17;79.47
40788;BME280;26497;52.494;7.546;2023-03-23T01:39:00;99562.22;;;15.21;79.04
40788;BME280;26497;52.494;7.546;2023-03-23T01:41:30;99549.38;;;15.32;77.70
40788;BME280;26497;52.494;7.546;2023-03-23T01:44:03;99564.44;;;15.32;77.99
40788;BME280;26497;52.494;7.546;2023-03-23T01:46:32;99543.81;;;15.39;77.65
40788;BME280;26497;52.494;7.546;2023-03-23T01:49:06;99553.69;;;15.59;76.69
40788;BME280;26497;52.494;7.546;2023-03-23T01:51:37;99551.16;;;15.56;76.13
40788;BME280;26497;52.494;7.546;2023-03-23T01:54:09;99546.88;;;15.52;76.15
40788;BME280;26497;52.494;7.546;2023-03-23T01:56:45;99539.06;;;15.47;76.41
40788;BME280;26497;52.494;7.546;2023-03-23T01:59:14;99534.91;;;15.63;75.61
40788;BME280;26497;52.494;7.546;2023-03-23T02:01:42;99533.28;;;15.59;75.50
40788;BME280;26497;52.494;7.546;2023-03-23T02:04:13;99547.47;;;15.82;75.01
40788;BME280;26497;52.494;7.546;2023-03-23T02:06:41;99549.69;;;15.71;75.15
40788;BME280;26497;52.494;7.546;2023-03-23T02:09:08;99551.66;;;15.66;75.24
40788;BME280;26497;52.494;7.546;2023-03-23T02:11:35;99554.09;;;15.48;76.27
40788;BME280;26497;52.494;7.546;2023-03-23T02:14:02;99560.28;;;15.48;76.26
40788;BME280;26497;52.494;7.546;2023-03-23T02:16:37;99551.63;;;15.43;76.73
40788;BME280;26497;52.494;7.546;2023-03-23T02:19:42;99528.44;;;15.47;76.82
40788;BME280;26497;52.494;7.546;2023-03-23T02:25:59;99506.47;;;15.19;78.14
40788;BME280;26497;52.494;7.546;2023-03-23T02:28:50;99497.34;;;15.27;77.70
40788;BME280;26497;52.494;7.546;2023-03-23T02:31:56;99480.84;;;15.18;77.88
40788;BME280;26497;52.494;7.546;2023-03-23T02:34:31;99478.66;;;15.06;78.34
40788;BME280;26497;52.494;7.546;2023-03-23T02:37:06;99464.69;;;15.01;78.74
40788;BME280;26497;52.494;7.546;2023-03-23T02:39:40;99471.13;;;14.95;78.60
40788;BME280;26497;52.494;7.546;2023-03-23T02:42:11;99456.69;;;15.02;78.02
40788;BME280;26497;52.494;7.546;2023-03-23T02:44:42;99474.94;;;15.12;77.92
40788;BME280;26497;52.494;7.546;2023-03-23T02:47:14;99495.69;;;15.00;78.15
40788;BME280;26497;52.494;7.546;2023-03-23T02:49:47;99476.88;;;15.07;77.77
40788;BME280;26497;52.494;7.546;2023-03-23T02:52:26;99477.00;;;15.03;77.68
40788;BME280;26497;52.494;7.546;2023-03-23T02:54:55;99469.41;;;15.16;76.95
40788;BME280;26497;52.494;7.546;2023-03-23T02:57:25;99458.56;;;14.99;77.52
40788;BME280;26497;52.494;7.546;2023-03-23T02:59:53;99456.63;;;15.04;77.57
40788;BME280;26497;52.494;7.546;2023-03-23T03:02:24;99454.72;;;15.08;77.29
40788;BME280;26497;52.494;7.546;2023-03-23T03:04:54;99435.72;;;15.18;76.98
40788;BME280;26497;52.494;7.546;2023-03-23T03:07:39;99440.81;;;15.01;77.18
40788;BME280;26497;52.494;7.546;2023-03-23T03:10:19;99430.75;;;15.09;76.91
40788;BME280;26497;52.494;7.546;2023-03-23T03:12:56;99443.66;;;14.96;77.45
40788;BME280;26497;52.494;7.546;2023-03-23T03:15:31;99451.38;;;15.02;76.92
40788;BME280;26497;52.494;7.546;2023-03-23T03:18:08;99444.59;;;15.17;76.29
40788;BME280;26497;52.494;7.546;2023-03-23T03:20:43;99447.44;;;15.13;76.29
40788;BME280;26497;52.494;7.546;2023-03-23T03:23:13;99460.53;;;15.17;76.12
40788;BME280;26497;52.494;7.546;2023-03-23T03:25:43;99455.56;;;15.32;75.32
40788;BME280;26497;52.494;7.546;2023-03-23T03:28:15;99456.59;;;15.28;75.51
40788;BME280;26497;52.494;7.546;2023-03-23T03:30:49;99458.97;;;15.58;74.09
40788;BME280;26497;52.494;7.546;2023-03-23T03:33:19;99456.72;;;15.47;74.45
40788;BME280;26497;52.494;7.546;2023-03-23T03:35:53;99462.97;;;15.46;74.68
40788;BME280;26497;52.494;7.546;2023-03-23T03:38:21;99449.78;;;15.43;74.46
40788;BME280;26497;52.494;7.546;2023-03-23T03:40:48;99459.50;;;15.44;74.63
40788;BME280;26497;52.494;7.546;2023-03-23T03:43:15;99456.44;;;15.55;73.88
40788;BME280;26497;52.494;7.546;2023-03-23T03:45:43;99459.09;;;15.55;74.00
40788;BME280;26497;52.494;7.546;2023-03-23T03:48:10;99464.81;;;15.44;74.53
40788;BME280;26497;52.494;7.546;2023-03-23T03:50:38;99463.09;;;15.43;74.48
40788;BME280;26497;52.494;7.546;2023-03-23T03:53:06;99460.41;;;15.43;74.63
40788;BME280;26497;52.494;7.546;2023-03-23T03:55:33;99458.00;;;15.37;75.05
40788;BME280;26497;52.494;7.546;2023-03-23T03:58:04;99465.44;;;15.51;74.66
40788;BME280;26497;52.494;7.546;2023-03-23T04:00:31;99459.16;;;15.29;75.53
40788;BME280;26497;52.494;7.546;2023-03-23T04:02:58;99458.50;;;15.24;76.00
40788;BME280;26497;52.494;7.546;2023-03-23T04:05:26;99452.81;;;15.33;75.37
40788;BME280;26497;52.494;7.546;2023-03-23T04:07:54;99455.19;;;15.19;75.77
40788;BME280;26497;52.494;7.546;2023-03-23T04:10:29;99448.94;;;15.20;75.90
40788;BME280;26497;52.494;7.546;2023-03-23T04:12:57;99453.50;;;15.39;75.23
40788;BME280;26497;52.494;7.546;2023-03-23T04:15:24;99447.88;;;15.24;75.42
40788;BME280;26497;52.494;7.546;2023-03-23T04:17:51;99443.19;;;15.31;75.35
40788;BME280;26497;52.494;7.546;2023-03-23T04:20:19;99440.22;;;15.16;75.80
40788;BME280;26497;52.494;7.546;2023-03-23T04:22:47;99439.38;;;15.16;76.00
40788;BME280;26497;52.494;7.546;2023-03-23T04:25:18;99444.69;;;15.38;75.23
40788;BME280;26497;52.494;7.546;2023-03-23T04:27:48;99445.50;;;15.40;74.31
40788;BME280;26497;52.494;7.546;2023-03-23T04:30:19;99444.56;;;15.41;74.47
40788;BME280;26497;52.494;7.546;2023-03-23T04:32:46;99437.19;;;15.48;73.61
40788;BME280;26497;52.494;7.546;2023-03-23T04:35:18;99433.25;;;15.36;74.03
40788;BME280;26497;52.494;7.546;2023-03-23T04:37:46;99423.03;;;15.25;74.02
40788;BME280;26497;52.494;7.546;2023-03-23T04:40:14;99419.22;;;15.32;73.99
40788;BME280;26497;52.494;7.546;2023-03-23T04:42:43;99430.41;;;15.41;73.18
40788;BME280;26497;52.494;7.546;2023-03-23T04:45:16;99438.00;;;15.50;72.86
40788;BME280;26497;52.494;7.546;2023-03-23T04:47:48;99437.22;;;15.70;71.66
40788;BME280;26497;52.494;7.546;2023-03-23T04:50:20;99433.63;;;15.49;71.94
40788;BME280;26497;52.494;7.546;2023-03-23T04:52:50;99431.59;;;15.56;71.91
40788;BME280;26497;52.494;7.546;2023-03-23T04:55:20;99421.81;;;15.78;71.01
40788;BME280;26497;52.494;7.546;2023-03-23T04:57:47;99426.47;;;15.94;70.49
40788;BME280;26497;52.494;7.546;2023-03-23T05:00:17;99425.63;;;15.94;70.37
40788;BME280;26497;52.494;7.546;2023-03-23T05:02:47;99429.22;;;16.13;69.43
40788;BME280;26497;52.494;7.546;2023-03-23T05:05:18;99439.38;;;16.03;70.00
40788;BME280;26497;52.494;7.546;2023-03-23T05:07:45;99433.53;;;15.95;70.15
40788;BME280;26497;52.494;7.546;2023-03-23T05:10:13;99431.88;;;15.92;70.87
40788;BME280;26497;52.494;7.546;2023-03-23T05:12:41;99439.63;;;15.76;71.56
40788;BME280;26497;52.494;7.546;2023-03-23T05:15:09;99446.94;;;15.70;72.72
40788;BME280;26497;52.494;7.546;2023-03-23T05:17:38;99443.56;;;15.66;75.51
40788;BME280;26497;52.494;7.546;2023-03-23T05:20:08;99438.31;;;15.42;77.12
40788;BME280;26497;52.494;7.546;2023-03-23T05:22:37;99444.09;;;15.08;79.87
40788;BME280;26497;52.494;7.546;2023-03-23T05:25:05;99444.91;;;15.10;80.16
40788;BME280;26497;52.494;7.546;2023-03-23T05:27:34;99442.13;;;15.13;80.63
40788;BME280;26497;52.494;7.546;2023-03-23T05:30:03;99447.34;;;14.92;81.96
40788;BME280;26497;52.494;7.546;2023-03-23T05:32:30;99433.13;;;14.69;83.59
40788;BME280;26497;52.494;7.546;2023-03-23T05:35:00;99451.03;;;14.88;83.27
40788;BME280;26497;52.494;7.546;2023-03-23T05:37:28;99452.88;;;14.86;84.06
40788;BME280;26497;52.494;7.546;2023-03-23T05:39:58;99435.09;;;14.88;83.48
40788;BME280;26497;52.494;7.546;2023-03-23T05:42:31;99441.50;;;14.82;84.08
40788;BME280;26497;52.494;7.546;2023-03-23T05:45:00;99440.34;;;14.89;83.51
40788;BME280;26497;52.494;7.546;2023-03-23T05:47:27;99443.22;;;14.83;84.17
40788;BME280;26497;52.494;7.546;2023-03-23T05:49:54;99436.41;;;15.00;83.28
40788;BME280;26497;52.494;7.546;2023-03-23T05:52:23;99445.53;;;14.93;82.68
40788;BME280;26497;52.494;7.546;2023-03-23T05:54:50;99448.16;;;14.94;83.23
40788;BME280;26497;52.494;7.546;2023-03-23T05:57:18;99439.16;;;15.21;81.48
40788;BME280;26497;52.494;7.546;2023-03-23T05:59:47;99445.47;;;15.18;80.89
40788;BME280;26497;52.494;7.546;2023-03-23T06:02:15;99440.34;;;15.36;79.73
40788;BME280;26497;52.494;7.546;2023-03-23T06:04:42;99429.28;;;15.24;79.54
40788;BME280;26497;52.494;7.546;2023-03-23T06:07:10;99448.88;;;15.22;79.16
40788;BME280;26497;52.494;7.546;2023-03-23T06:09:41;99444.97;;;15.30;78.96
40788;BME280;26497;52.494;7.546;2023-03-23T06:12:08;99440.78;;;15.47;77.73
40788;BME280;26497;52.494;7.546;2023-03-23T06:14:36;99441.41;;;15.54;77.19
40788;BME280;26497;52.494;7.546;2023-03-23T06:17:04;99436.91;;;15.56;75.94
40788;BME280;26497;52.494;7.546;2023-03-23T06:19:31;99446.28;;;15.65;75.54
40788;BME280;26497;52.494;7.546;2023-03-23T06:22:00;99455.22;;;15.84;75.24
40788;BME280;26497;52.494;7.546;2023-03-23T06:24:28;99444.28;;;15.70;74.90
40788;BME280;26497;52.494;7.546;2023-03-23T06:26:56;99456.75;;;15.69;74.85
40788;BME280;26497;52.494;7.546;2023-03-23T06:29:24;99460.91;;;15.97;73.05
40788;BME280;26497;52.494;7.546;2023-03-23T06:31:56;99460.88;;;15.76;73.61
40788;BME280;26497;52.494;7.546;2023-03-23T06:34:24;99461.34;;;15.86;73.18
40788;BME280;26497;52.494;7.546;2023-03-23T06:36:51;99473.50;;;15.94;72.21
40788;BME280;26497;52.494;7.546;2023-03-23T06:39:19;99469.03;;;16.15;71.87
40788;BME280;26497;52.494;7.546;2023-03-23T06:41:46;99473.66;;;16.11;71.34
40788;BME280;26497;52.494;7.546;2023-03-23T06:44:14;99476.16;;;15.94;71.46
40788;BME280;26497;52.494;7.546;2023-03-23T06:46:42;99471.53;;;16.19;69.96
40788;BME280;26497;52.494;7.546;2023-03-23T06:49:09;99468.78;;;16.21;70.31
40788;BME280;26497;52.494;7.546;2023-03-23T06:51:37;99463.81;;;16.13;69.76
40788;BME280;26497;52.494;7.546;2023-03-23T06:54:05;99473.53;;;16.35;69.73
40788;BME280;26497;52.494;7.546;2023-03-23T06:56:32;99467.16;;;16.39;68.91
40788;BME280;26497;52.494;7.546;2023-03-23T06:58:59;99465.94;;;16.26;68.63
40788;BME280;26497;52.494;7.546;2023-03-23T07:01:28;99480.31;;;16.21;69.67
40788;BME280;26497;52.494;7.546;2023-03-23T07:03:55;99474.91;;;16.64;67.66
40788;BME280;26497;52.494;7.546;2023-03-23T07:06:24;99483.97;;;16.60;67.05
40788;BME280;26497;52.494;7.546;2023-03-23T07:08:51;99475.06;;;16.80;67.47
40788;BME280;26497;52.494;7.546;2023-03-23T07:11:19;99481.13;;;17.24;64.60
40788;BME280;26497;52.494;7.546;2023-03-23T07:13:46;99480.34;;;17.78;62.99
40788;BME280;26497;52.494;7.546;2023-03-23T07:16:13;99478.50;;;18.50;59.51
40788;BME280;26497;52.494;7.546;2023-03-23T07:18:41;99476.00;;;18.30;58.74
40788;BME280;26497;52.494;7.546;2023-03-23T07:21:08;99475.16;;;18.11;59.64
40788;BME280;26497;52.494;7.546;2023-03-23T07:23:35;99492.00;;;18.12;59.97
40788;BME280;26497;52.494;7.546;2023-03-23T07:26:03;99497.72;;;17.67;61.54
40788;BME280;26497;52.494;7.546;2023-03-23T07:28:30;99489.81;;;17.47;62.75
40788;BME280;26497;52.494;7.546;2023-03-23T07:30:57;99492.34;;;17.12;62.98
40788;BME280;26497;52.494;7.546;2023-03-23T07:33:24;99491.50;;;17.11;64.03
40788;BME280;26497;52.494;7.546;2023-03-23T07:35:53;99471.16;;;17.28;63.49
40788;BME280;26497;52.494;7.546;2023-03-23T07:38:20;99490.19;;;17.20;64.29
40788;BME280;26497;52.494;7.546;2023-03-23T07:40:47;99558.41;;;16.83;65.88
40788;BME280;26497;52.494;7.546;2023-03-23T07:43:14;99566.91;;;16.70;64.27
40788;BME280;26497;52.494;7.546;2023-03-23T07:45:41;99550.50;;;15.95;63.54
40788;BME280;26497;52.494;7.546;2023-03-23T07:48:08;99559.19;;;15.07;66.82
40788;BME280;26497;52.494;7.546;2023-03-23T07:50:35;99551.63;;;14.69;70.05
40788;BME280;26497;52.494;7.546;2023-03-23T07:53:04;99544.47;;;14.45;72.17
40788;BME280;26497;52.494;7.546;2023-03-23T07:55:32;99569.59;;;14.35;73.37
40788;BME280;26497;52.494;7.546;2023-03-23T07:57:59;99546.22;;;14.47;73.08
40788;BME280;26497;52.494;7.546;2023-03-23T08:00:26;99577.75;;;14.29;74.39
40788;BME280;26497;52.494;7.546;2023-03-23T08:02:56;99560.78;;;14.60;73.82
40788;BME280;26497;52.494;7.546;2023-03-23T08:05:25;99567.03;;;14.59;74.56
40788;BME280;26497;52.494;7.546;2023-03-23T08:07:54;99556.81;;;14.73;74.38
40788;BME280;26497;52.494;7.546;2023-03-23T08:10:23;99562.63;;;14.58;75.28
40788;BME280;26497;52.494;7.546;2023-03-23T08:12:55;99555.72;;;14.27;77.14
40788;BME280;26497;52.494;7.546;2023-03-23T08:15:23;99575.59;;;14.13;78.63
40788;BME280;26497;52.494;7.546;2023-03-23T08:17:50;99583.63;;;14.12;79.01
40788;BME280;26497;52.494;7.546;2023-03-23T08:20:18;99570.03;;;13.94;79.57
40788;BME280;26497;52.494;7.546;2023-03-23T08:22:52;99547.53;;;14.06;78.84
40788;BME280;26497;52.494;7.546;2023-03-23T08:25:22;99560.72;;;13.81;79.82
40788;BME280;26497;52.494;7.546;2023-03-23T08:27:51;99560.63;;;13.84;79.76
40788;BME280;26497;52.494;7.546;2023-03-23T08:30:20;99583.41;;;13.61;80.87
40788;BME280;26497;52.494;7.546;2023-03-23T08:32:49;99597.63;;;13.59;81.13
40788;BME280;26497;52.494;7.546;2023-03-23T08:35:17;99585.69;;;13.74;80.32
40788;BME280;26497;52.494;7.546;2023-03-23T08:37:45;99595.19;;;13.81;79.96
40788;BME280;26497;52.494;7.546;2023-03-23T08:40:18;99607.38;;;13.86;80.07
40788;BME280;26497;52.494;7.546;2023-03-23T08:42:49;99599.16;;;14.23;79.11
40788;BME280;26497;52.494;7.546;2023-03-23T08:45:20;99605.66;;;14.12;78.98
40788;BME280;26497;52.494;7.546;2023-03-23T08:47:49;99602.19;;;14.10;79.24
40788;BME280;26497;52.494;7.546;2023-03-23T08:50:21;99601.69;;;14.27;79.02
40788;BME280;26497;52.494;7.546;2023-03-23T08:52:49;99601.59;;;14.57;78.52
40788;BME280;26497;52.494;7.546;2023-03-23T08:55:17;99598.50;;;14.70;77.76
40788;BME280;26497;52.494;7.546;2023-03-23T08:57:44;99606.47;;;14.70;77.59
40788;BME280;26497;52.494;7.546;2023-03-23T09:00:18;99607.03;;;14.80;77.18
40788;BME280;26497;52.494;7.546;2023-03-23T09:02:47;99624.78;;;14.51;77.85
40788;BME280;26497;52.494;7.546;2023-03-23T09:05:15;99619.78;;;14.41;78.75
40788;BME280;26497;52.494;7.546;2023-03-23T09:07:45;99611.25;;;14.58;79.08
40788;BME280;26497;52.494;7.546;2023-03-23T09:10:14;99623.72;;;14.83;78.16
40788;BME280;26497;52.494;7.546;2023-03-23T09:12:42;99610.06;;;15.19;78.09
40788;BME280;26497;52.494;7.546;2023-03-23T09:15:14;99615.44;;;15.42;77.51
40788;BME280;26497;52.494;7.546;2023-03-23T09:17:45;99610.13;;;15.66;76.76
40788;BME280;26497;52.494;7.546;2023-03-23T09:20:15;99615.97;;;15.75;76.10
40788;BME280;26497;52.494;7.546;2023-03-23T09:22:44;99626.16;;;15.86;75.62
40788;BME280;26497;52.494;7.546;2023-03-23T09:25:13;99614.13;;;15.77;75.28
40788;BME280;26497;52.494;7.546;2023-03-23T09:27:42;99614.00;;;15.81;74.95
40788;BME280;26497;52.494;7.546;2023-03-23T09:30:14;99621.63;;;15.66;75.43
40788;BME280;26497;52.494;7.546;2023-03-23T09:32:41;99632.06;;;15.71;76.21
40788;BME280;26497;52.494;7.546;2023-03-23T09:35:10;99636.34;;;15.99;77.15
40788;BME280;26497;52.494;7.546;2023-03-23T09:37:39;99631.97;;;15.98;77.20
40788;BME280;26497;52.494;7.546;2023-03-23T09:40:11;99644.47;;;15.96;77.95
40788;BME280;26497;52.494;7.546;2023-03-23T09:43:09;99644.59;;;16.15;76.54
40788;BME280;26497;52.494;7.546;2023-03-23T09:45:51;99648.81;;;16.20;75.90
40788;BME280;26497;52.494;7.546;2023-03-23T09:48:36;99644.09;;;16.49;75.08
40788;BME280;26497;52.494;7.546;2023-03-23T09:51:15;99656.53;;;16.49;74.91
40788;BME280;26497;52.494;7.546;2023-03-23T09:53:48;99650.97;;;16.55;74.83
40788;BME280;26497;52.494;7.546;2023-03-23T09:56:17;99653.88;;;16.49;74.90
40788;BME280;26497;52.494;7.546;2023-03-23T09:58:49;99656.91;;;16.17;75.78
40788;BME280;26497;52.494;7.546;2023-03-23T10:01:22;99647.28;;;15.91;75.86
40788;BME280;26497;52.494;7.546;2023-03-23T10:03:57;99650.09;;;15.62;77.28
40788;BME280;26497;52.494;7.546;2023-03-23T10:06:27;99659.72;;;15.90;77.22
40788;BME280;26497;52.494;7.546;2023-03-23T10:08:59;99663.19;;;15.92;76.56
40788;BME280;26497;52.494;7.546;2023-03-23T10:11:40;99667.50;;;15.95;77.07
40788;BME280;26497;52.494;7.546;2023-03-23T10:14:21;99666.06;;;16.32;75.92
40788;BME280;26497;52.494;7.546;2023-03-23T10:17:00;99673.72;;;16.62;74.91
40788;BME280;26497;52.494;7.546;2023-03-23T10:19:35;99658.81;;;17.01;74.67
40788;BME280;26497;52.494;7.546;2023-03-23T10:22:09;99651.59;;;16.83;71.92
40788;BME280;26497;52.494;7.546;2023-03-23T10:24:41;99656.84;;;16.41;70.60
40788;BME280;26497;52.494;7.546;2023-03-23T10:27:19;99654.81;;;16.26;72.08
40788;BME280;26497;52.494;7.546;2023-03-23T10:29:55;99660.09;;;16.70;71.00
40788;BME280;26497;52.494;7.546;2023-03-23T10:32:40;99656.78;;;16.43;71.60
40788;BME280;26497;52.494;7.546;2023-03-23T10:35:13;99677.47;;;16.36;71.77
40788;BME280;26497;52.494;7.546;2023-03-23T10:37:46;99666.25;;;16.50;71.50
40788;BME280;26497;52.494;7.546;2023-03-23T10:40:17;99677.94;;;16.89;70.48
40788;BME280;26497;52.494;7.546;2023-03-23T10:42:46;99683.91;;;16.95;69.03
40788;BME280;26497;52.494;7.546;2023-03-23T10:45:19;99678.00;;;17.09;70.10
40788;BME280;26497;52.494;7.546;2023-03-23T10:47:52;99669.72;;;17.76;67.84
40788;BME280;26497;52.494;7.546;2023-03-23T10:50:25;99663.97;;;18.24;64.14
40788;BME280;26497;52.494;7.546;2023-03-23T10:52:56;99687.59;;;17.93;64.39
40788;BME280;26497;52.494;7.546;2023-03-23T10:55:36;99679.34;;;18.00;64.29
40788;BME280;26497;52.494;7.546;2023-03-23T10:58:09;99673.69;;;17.87;65.20
40788;BME280;26497;52.494;7.546;2023-03-23T11:00:41;99675.84;;;18.36;62.74
40788;BME280;26497;52.494;7.546;2023-03-23T11:03:39;99674.75;;;18.94;62.52
40788;BME280;26497;52.494;7.546;2023-03-23T11:06:10;99671.84;;;19.34;61.73
40788;BME280;26497;52.494;7.546;2023-03-23T11:08:47;99678.19;;;19.83;58.03
40788;BME280;26497;52.494;7.546;2023-03-23T11:11:18;99679.28;;;19.96;58.39
40788;BME280;26497;52.494;7.546;2023-03-23T11:13:49;99678.66;;;20.07;56.97
40788;BME280;26497;52.494;7.546;2023-03-23T11:16:25;99682.81;;;20.29;55.54
40788;BME280;26497;52.494;7.546;2023-03-23T11:18:55;99675.34;;;19.86;55.15
40788;BME280;26497;52.494;7.546;2023-03-23T11:21:24;99671.44;;;20.25;56.37
40788;BME280;26497;52.494;7.546;2023-03-23T11:23:55;99672.13;;;20.75;54.92
40788;BME280;26497;52.494;7.546;2023-03-23T11:26:26;99667.81;;;20.89;52.46
40788;BME280;26497;52.494;7.546;2023-03-23T11:28:58;99670.22;;;19.65;53.71
40788;BME280;26497;52.494;7.546;2023-03-23T11:31:30;99673.59;;;20.02;56.19
40788;BME280;26497;52.494;7.546;2023-03-23T11:34:03;99665.13;;;19.77;54.97
40788;BME280;26497;52.494;7.546;2023-03-23T11:36:35;99669.25;;;19.66;56.78
40788;BME280;26497;52.494;7.546;2023-03-23T11:39:16;99677.91;;;19.71;55.99
40788;BME280;26497;52.494;7.546;2023-03-23T11:41:46;99684.41;;;19.83;54.87
40788;BME280;26497;52.494;7.546;2023-03-23T11:44:14;99694.00;;;19.54;54.50
40788;BME280;26497;52.494;7.546;2023-03-23T11:46:52;99682.69;;;19.82;55.24
40788;BME280;26497;52.494;7.546;2023-03-23T11:49:32;99676.63;;;20.75;51.80
40788;BME280;26497;52.494;7.546;2023-03-23T11:52:11;99685.59;;;20.74;51.52
40788;BME280;26497;52.494;7.546;2023-03-23T11:54:46;99683.69;;;21.23;51.57
40788;BME280;26497;52.494;7.546;2023-03-23T11:57:13;99689.97;;;21.67;49.10
40788;BME280;26497;52.494;7.546;2023-03-23T11:59:42;99679.94;;;21.25;49.24
40788;BME280;26497;52.494;7.546;2023-03-23T12:02:42;99677.72;;;21.17;48.84
40788;BME280;26497;52.494;7.546;2023-03-23T12:05:37;99682.69;;;21.83;46.88
40788;BME280;26497;52.494;7.546;2023-03-23T12:08:29;99675.72;;;22.22;44.50
40788;BME280;26497;52.494;7.546;2023-03-23T12:11:07;99667.63;;;21.37;45.02
40788;BME280;26497;52.494;7.546;2023-03-23T12:13:49;99672.63;;;21.58;46.19
40788;BME280;26497;52.494;7.546;2023-03-23T12:16:38;99668.00;;;21.60;43.22
40788;BME280;26497;52.494;7.546;2023-03-23T12:19:18;99672.22;;;21.49;44.95
40788;BME280;26497;52.494;7.546;2023-03-23T12:21:59;99673.31;;;21.16;45.83
40788;BME280;26497;52.494;7.546;2023-03-23T12:24:47;99674.13;;;21.47;46.61
40788;BME280;26497;52.494;7.546;2023-03-23T12:27:22;99671.66;;;21.59;45.22
40788;BME280;26497;52.494;7.546;2023-03-23T12:30:10;99683.81;;;20.58;45.39
40788;BME280;26497;52.494;7.546;2023-03-23T12:32:55;99670.66;;;20.23;46.38
40788;BME280;26497;52.494;7.546;2023-03-23T12:35:38;99687.50;;;20.25;46.44
40788;BME280;26497;52.494;7.546;2023-03-23T12:38:23;99678.22;;;21.10;45.00
40788;BME280;26497;52.494;7.546;2023-03-23T12:41:10;99683.50;;;21.40;44.53
40788;BME280;26497;52.494;7.546;2023-03-23T12:43:51;99677.84;;;21.16;44.20
40788;BME280;26497;52.494;7.546;2023-03-23T12:47:07;99695.69;;;21.01;44.60
40788;BME280;26497;52.494;7.546;2023-03-23T12:49:41;99699.44;;;20.82;45.30
40788;BME280;26497;52.494;7.546;2023-03-23T12:52:16;99689.75;;;20.63;45.67
40788;BME280;26497;52.494;7.546;2023-03-23T12:54:51;99702.34;;;20.47;45.88
40788;BME280;26497;52.494;7.546;2023-03-23T12:57:27;99684.69;;;20.59;45.96
40788;BME280;26497;52.494;7.546;2023-03-23T13:00:06;99684.75;;;20.73;45.82
40788;BME280;26497;52.494;7.546;2023-03-23T13:02:42;99692.50;;;20.31;46.29
40788;BME280;26497;52.494;7.546;2023-03-23T13:05:24;99687.53;;;21.33;45.09
40788;BME280;26497;52.494;7.546;2023-03-23T13:07:58;99681.06;;;22.37;41.98
40788;BME280;26497;52.494;7.546;2023-03-23T13:10:33;99686.88;;;22.58;40.54
40788;BME280;26497;52.494;7.546;2023-03-23T13:13:02;99690.88;;;23.06;40.06
40788;BME280;26497;52.494;7.546;2023-03-23T13:15:37;99699.00;;;22.36;41.80
40788;BME280;26497;52.494;7.546;2023-03-23T13:18:15;99696.44;;;22.62;42.02
40788;BME280;26497;52.494;7.546;2023-03-23T13:20:55;99692.03;;;22.19;40.91
40788;BME280;26497;52.494;7.546;2023-03-23T13:23:28;99691.88;;;21.79;41.96
40788;BME280;26497;52.494;7.546;2023-03-23T13:26:03;99674.03;;;21.20;42.35